createdAt,value
2022-12-27T00:01:47.975Z,75.00
2022-12-27T00:04:16.156Z,74.70
2022-12-27T00:06:44.479Z,74.60
2022-12-27T00:09:12.637Z,75.10
2022-12-27T00:11:41.177Z,75.20
2022-12-27T00:14:12.553Z,75.10
2022-12-27T00:16:40.763Z,75.10
2022-12-27T00:19:09.048Z,75.10
2022-12-27T00:21:37.615Z,75.20
2022-12-27T00:24:06.107Z,75.20
2022-12-27T00:26:38.256Z,75.20
2022-12-27T00:29:06.469Z,75.00
2022-12-27T00:31:36.047Z,74.80
2022-12-27T00:34:07.746Z,74.70
2022-12-27T00:36:36.473Z,74.60
2022-12-27T00:39:05.198Z,74.30
2022-12-27T00:41:33.519Z,74.40
2022-12-27T00:44:01.684Z,74.50
2022-12-27T00:46:29.837Z,74.20
2022-12-27T00:48:59.611Z,73.90
2022-12-27T00:51:27.840Z,73.60
2022-12-27T00:53:56.407Z,73.40
2022-12-27T00:56:27.730Z,73.20
2022-12-27T00:58:56.260Z,72.80
2022-12-27T01:01:26.270Z,72.80
2022-12-27T01:03:54.949Z,72.70
2022-12-27T01:06:28.827Z,72.70
2022-12-27T01:08:57.749Z,72.70
2022-12-27T01:11:28.403Z,72.50
2022-12-27T01:13:57.624Z,72.70
2022-12-27T01:16:27.249Z,72.70
2022-12-27T01:18:55.924Z,72.70
2022-12-27T01:21:26.291Z,72.70
2022-12-27T01:23:55.381Z,72.80
2022-12-27T01:26:24.713Z,72.80
2022-12-27T01:28:53.559Z,73.00
2022-12-27T01:31:25.821Z,73.20
2022-12-27T01:33:56.510Z,73.50
2022-12-27T01:36:27.608Z,73.60
2022-12-27T01:38:55.962Z,73.90
2022-12-27T01:41:43.860Z,74.20
2022-12-27T01:45:00.915Z,74.30
2022-12-27T01:47:38.717Z,74.50
2022-12-27T01:50:18.373Z,74.60
2022-12-27T01:52:54.220Z,74.90
2022-12-27T01:55:29.528Z,75.10
2022-12-27T01:58:01.702Z,75.40
2022-12-27T02:00:29.850Z,75.50
2022-12-27T02:02:58.471Z,75.70
2022-12-27T02:05:27.354Z,75.80
2022-12-27T02:08:09.912Z,75.90
2022-12-27T02:10:38.657Z,76.10
2022-12-27T02:13:07.513Z,76.30
2022-12-27T02:15:35.909Z,76.40
2022-12-27T02:18:04.408Z,76.50
2022-12-27T02:20:51.808Z,76.60
2022-12-27T02:23:57.906Z,76.70
2022-12-27T02:26:53.759Z,76.70
2022-12-27T02:29:36.768Z,77.00
2022-12-27T02:32:09.183Z,77.00
2022-12-27T02:34:46.489Z,77.30
2022-12-27T02:37:15.321Z,77.20
2022-12-27T02:39:48.762Z,77.30
2022-12-27T02:42:37.466Z,77.60
2022-12-27T02:45:37.965Z,77.60
2022-12-27T02:48:35.017Z,77.50
2022-12-27T02:51:39.653Z,77.50
2022-12-27T02:54:23.005Z,77.60
2022-12-27T02:57:14.245Z,77.70
2022-12-27T03:00:28.515Z,77.80
2022-12-27T03:03:29.395Z,77.80
2022-12-27T03:06:42.262Z,77.80
2022-12-27T03:10:08.479Z,77.80
2022-12-27T03:13:18.354Z,77.90
2022-12-27T03:16:12.907Z,77.80
2022-12-27T03:19:09.401Z,77.90
2022-12-27T03:21:59.559Z,78.00
2022-12-27T03:24:51.451Z,77.90
2022-12-27T03:27:28.701Z,78.10
2022-12-27T03:30:22.442Z,78.10
2022-12-27T03:33:15.273Z,78.10
2022-12-27T03:36:14.013Z,78.40
2022-12-27T03:38:52.211Z,78.40
2022-12-27T03:41:45.407Z,78.40
2022-12-27T03:44:25.280Z,78.50
2022-12-27T03:46:59.296Z,78.70
2022-12-27T03:49:56.728Z,78.60
2022-12-27T03:52:37.630Z,78.50
2022-12-27T03:55:09.545Z,78.50
2022-12-27T03:57:40.550Z,78.60
2022-12-27T04:00:11.469Z,78.50
2022-12-27T04:02:43.167Z,78.60
2022-12-27T04:05:15.138Z,78.70
2022-12-27T04:08:00.463Z,78.70
2022-12-27T04:10:47.106Z,78.70
2022-12-27T04:13:35.550Z,78.50
2022-12-27T04:16:25.741Z,78.70
2022-12-27T04:19:12.458Z,78.80
2022-12-27T04:21:59.369Z,78.70
2022-12-27T04:24:48.165Z,78.90
2022-12-27T04:27:33.884Z,79.00
2022-12-27T04:30:19.377Z,79.00
2022-12-27T04:33:07.389Z,79.10
2022-12-27T04:35:39.184Z,79.20
2022-12-27T04:38:14.735Z,79.30
2022-12-27T04:41:02.525Z,79.30
2022-12-27T04:43:55.267Z,79.30
2022-12-27T04:46:46.805Z,79.40
2022-12-27T04:49:43.445Z,79.40
2022-12-27T04:52:33.352Z,79.50
2022-12-27T04:55:10.820Z,79.40
2022-12-27T04:57:43.764Z,79.30
2022-12-27T05:00:32.176Z,79.40
2022-12-27T05:03:03.227Z,79.60
2022-12-27T05:05:35.407Z,79.60
2022-12-27T05:08:24.443Z,79.70
2022-12-27T05:11:11.671Z,79.80
2022-12-27T05:13:59.454Z,79.70
2022-12-27T05:16:32.498Z,79.80
2022-12-27T05:19:03.055Z,79.70
2022-12-27T05:21:42.500Z,79.90
2022-12-27T05:24:28.407Z,79.90
2022-12-27T05:27:01.288Z,80.00
2022-12-27T05:29:36.422Z,80.00
2022-12-27T05:32:08.017Z,80.00
2022-12-27T05:34:47.091Z,80.00
2022-12-27T05:37:17.332Z,80.00
2022-12-27T05:39:46.683Z,80.10
2022-12-27T05:42:18.755Z,80.00
2022-12-27T05:44:47.190Z,80.20
2022-12-27T05:47:15.320Z,80.30
2022-12-27T05:49:44.785Z,80.30
2022-12-27T05:52:17.445Z,80.30
2022-12-27T05:54:48.188Z,80.30
2022-12-27T05:57:22.508Z,80.30
2022-12-27T05:59:51.863Z,80.40
2022-12-27T06:02:24.014Z,80.40
2022-12-27T06:04:56.034Z,80.40
2022-12-27T06:07:26.544Z,80.40
2022-12-27T06:09:56.037Z,80.30
2022-12-27T06:12:30.320Z,80.50
2022-12-27T06:15:02.514Z,80.60
2022-12-27T06:17:39.761Z,80.60
2022-12-27T06:20:08.769Z,80.50
2022-12-27T06:22:38.324Z,80.70
2022-12-27T06:25:14.140Z,80.70
2022-12-27T06:27:48.901Z,80.60
2022-12-27T06:30:19.808Z,80.60
2022-12-27T06:32:54.977Z,80.70
2022-12-27T06:35:23.128Z,80.60
2022-12-27T06:37:51.193Z,80.70
2022-12-27T06:40:22.542Z,80.80
2022-12-27T06:42:54.971Z,80.80
2022-12-27T06:45:25.658Z,80.80
2022-12-27T06:47:56.574Z,80.80
2022-12-27T06:50:25.019Z,80.90
2022-12-27T06:52:56.042Z,81.00
2022-12-27T06:55:24.637Z,80.90
2022-12-27T06:57:56.666Z,80.90
2022-12-27T07:00:29.656Z,80.90
2022-12-27T07:03:01.398Z,80.80
2022-12-27T07:05:30.751Z,80.80
2022-12-27T07:08:01.218Z,80.80
2022-12-27T07:10:30.276Z,80.90
2022-12-27T07:13:02.370Z,80.90
2022-12-27T07:15:32.909Z,80.80
2022-12-27T07:18:04.234Z,80.60
2022-12-27T07:20:34.616Z,80.80
2022-12-27T07:23:05.377Z,80.80
2022-12-27T07:25:35.130Z,80.90
2022-12-27T07:28:08.831Z,80.90
2022-12-27T07:30:41.769Z,81.00
2022-12-27T07:33:13.283Z,80.80
2022-12-27T07:35:47.016Z,80.90
2022-12-27T07:38:16.547Z,80.90
2022-12-27T07:40:44.689Z,81.00
2022-12-27T07:43:14.571Z,81.00
2022-12-27T07:45:42.787Z,80.90
2022-12-27T07:48:10.876Z,80.90
2022-12-27T07:50:39.055Z,81.00
2022-12-27T07:53:08.439Z,81.20
2022-12-27T07:55:36.785Z,81.20
2022-12-27T07:58:08.235Z,81.10
2022-12-27T08:00:41.016Z,81.10
2022-12-27T08:03:18.087Z,81.20
2022-12-27T08:05:53.017Z,81.10
2022-12-27T08:08:27.002Z,81.20
2022-12-27T08:11:03.586Z,81.10
2022-12-27T08:13:38.592Z,81.00
2022-12-27T08:16:26.392Z,81.00
2022-12-27T08:18:55.187Z,80.90
2022-12-27T08:21:26.022Z,80.90
2022-12-27T08:23:55.511Z,80.80
2022-12-27T08:26:24.938Z,80.80
2022-12-27T08:28:58.784Z,80.90
2022-12-27T08:31:29.687Z,80.80
2022-12-27T08:34:10.213Z,80.80
2022-12-27T08:36:55.299Z,80.50
2022-12-27T08:39:25.653Z,80.60
2022-12-27T08:41:57.320Z,80.60
2022-12-27T08:44:27.977Z,80.60
2022-12-27T08:46:59.870Z,80.50
2022-12-27T08:49:32.867Z,80.50
2022-12-27T08:52:01.002Z,80.40
2022-12-27T08:54:30.461Z,80.40
2022-12-27T08:56:59.417Z,80.30
2022-12-27T08:59:29.171Z,80.30
2022-12-27T09:02:03.340Z,80.30
2022-12-27T09:04:34.803Z,80.20
2022-12-27T09:07:03.585Z,80.30
2022-12-27T09:09:31.771Z,80.30
2022-12-27T09:12:02.915Z,80.30
2022-12-27T09:14:36.542Z,80.30
2022-12-27T09:17:09.606Z,80.20
2022-12-27T09:19:40.159Z,80.10
2022-12-27T09:22:08.524Z,80.10
2022-12-27T09:24:38.027Z,80.20
2022-12-27T09:27:06.312Z,80.00
2022-12-27T09:29:34.421Z,80.00
2022-12-27T09:32:02.802Z,79.90
2022-12-27T09:34:32.310Z,79.90
2022-12-27T09:37:00.514Z,79.90
2022-12-27T09:39:33.614Z,79.80
2022-12-27T09:42:46.590Z,79.60
2022-12-27T09:45:08.917Z,79.60
2022-12-27T09:47:52.501Z,79.60
2022-12-27T09:50:30.482Z,79.60
2022-12-27T09:53:03.480Z,79.50
2022-12-27T09:55:39.434Z,79.50
2022-12-27T09:58:19.585Z,79.40
2022-12-27T10:00:50.588Z,79.30
2022-12-27T10:03:21.414Z,79.30
2022-12-27T10:05:56.968Z,79.20
2022-12-27T10:08:35.316Z,79.10
2022-12-27T10:11:34.656Z,79.00
2022-12-27T10:14:07.900Z,79.10
2022-12-27T10:16:41.582Z,79.00
2022-12-27T10:19:25.935Z,79.00
2022-12-27T10:22:06.873Z,78.90
2022-12-27T10:24:41.044Z,78.80
2022-12-27T10:27:17.169Z,78.70
2022-12-27T10:29:45.285Z,78.70
2022-12-27T10:32:15.481Z,78.60
2022-12-27T10:34:43.753Z,78.60
2022-12-27T10:37:17.064Z,78.50
2022-12-27T10:39:45.319Z,78.40
2022-12-27T10:42:31.888Z,78.40
2022-12-27T10:45:25.922Z,78.10
2022-12-27T10:47:55.104Z,77.90
2022-12-27T10:50:26.376Z,77.60
2022-12-27T10:52:57.800Z,77.60
2022-12-27T10:55:35.657Z,77.50
2022-12-27T10:58:29.565Z,77.20
2022-12-27T11:00:58.953Z,77.00
2022-12-27T11:03:28.408Z,76.60
2022-12-27T11:06:04.837Z,76.40
2022-12-27T11:08:34.521Z,76.30
2022-12-27T11:11:19.164Z,76.20
2022-12-27T11:13:48.446Z,75.90
2022-12-27T11:16:23.731Z,75.90
2022-12-27T11:18:53.976Z,75.70
2022-12-27T11:21:27.770Z,75.80
2022-12-27T11:24:00.824Z,75.60
2022-12-27T11:26:31.893Z,75.40
2022-12-27T11:29:02.736Z,75.50
2022-12-27T11:31:35.516Z,75.20
2022-12-27T11:34:08.757Z,75.20
2022-12-27T11:36:40.853Z,75.10
2022-12-27T11:39:40.555Z,75.00
2022-12-27T11:42:13.217Z,74.70
2022-12-27T11:44:46.432Z,74.40
2022-12-27T11:47:30.611Z,74.20
2022-12-27T11:50:14.430Z,73.80
2022-12-27T11:52:57.907Z,73.50
2022-12-27T11:55:40.030Z,73.60
2022-12-27T11:58:50.061Z,73.50
2022-12-27T12:01:54.416Z,73.50
2022-12-27T12:05:01.808Z,72.80
2022-12-27T12:07:53.219Z,72.50
2022-12-27T12:10:33.979Z,72.20
2022-12-27T12:13:40.464Z,71.90
2022-12-27T12:16:34.834Z,71.30
2022-12-27T12:19:31.970Z,71.10
2022-12-27T12:22:13.860Z,71.00
2022-12-27T12:25:17.020Z,71.10
2022-12-27T12:28:01.230Z,70.60
2022-12-27T12:30:50.391Z,70.80
2022-12-27T12:33:42.498Z,70.60
2022-12-27T12:36:26.456Z,70.10
2022-12-27T12:39:00.851Z,70.20
2022-12-27T12:41:47.971Z,70.10
2022-12-27T12:44:44.947Z,70.00
2022-12-27T12:47:28.410Z,69.60
2022-12-27T12:50:15.776Z,69.40
2022-12-27T12:53:01.880Z,69.10
2022-12-27T12:55:40.923Z,69.20
2022-12-27T12:58:28.234Z,69.20
2022-12-27T13:01:21.137Z,69.10
2022-12-27T13:04:06.076Z,68.80
2022-12-27T13:07:12.883Z,68.40
2022-12-27T13:10:02.100Z,68.60
2022-12-27T13:12:38.641Z,68.40
2022-12-27T13:15:20.516Z,68.40
2022-12-27T13:18:03.445Z,68.30
2022-12-27T13:21:04.805Z,68.40
2022-12-27T13:23:46.151Z,68.50
2022-12-27T13:26:23.786Z,67.90
2022-12-27T13:29:02.225Z,67.80
2022-12-27T13:31:39.586Z,67.80
2022-12-27T13:34:23.405Z,68.00
2022-12-27T13:37:12.411Z,68.10
2022-12-27T13:39:53.145Z,68.00
2022-12-27T13:42:44.394Z,68.30
2022-12-27T13:45:24.510Z,68.30
2022-12-27T13:48:03.727Z,68.50
2022-12-27T13:51:04.607Z,68.50
2022-12-27T13:53:58.092Z,68.50
2022-12-27T13:59:53.799Z,68.30
2022-12-27T14:02:53.634Z,68.10
2022-12-27T14:05:57.985Z,68.20
2022-12-27T14:08:48.095Z,68.30
2022-12-27T14:11:32.765Z,68.30
2022-12-27T14:14:03.137Z,68.20
2022-12-27T14:16:42.645Z,67.80
2022-12-27T14:19:31.966Z,68.00
2022-12-27T14:22:16.970Z,67.90
2022-12-27T14:25:37.267Z,68.00
2022-12-27T14:28:39.193Z,68.30
2022-12-27T14:31:57.883Z,68.50
2022-12-27T14:35:18.634Z,68.70
2022-12-27T14:38:25.589Z,69.10
2022-12-27T14:41:26.543Z,69.30
2022-12-27T14:44:25.446Z,69.50
2022-12-27T14:47:32.242Z,69.70
2022-12-27T14:50:36.901Z,69.70
2022-12-27T14:53:36.983Z,69.70
2022-12-27T14:56:19.396Z,69.90
2022-12-27T14:59:02.396Z,69.80
2022-12-27T15:01:42.757Z,69.90
2022-12-27T15:04:44.986Z,70.40
2022-12-27T15:07:43.411Z,70.80
2022-12-27T15:10:23.605Z,71.10
2022-12-27T15:13:02.738Z,71.40
2022-12-27T15:15:45.757Z,71.60
2022-12-27T15:18:31.669Z,71.70
2022-12-27T15:21:26.051Z,71.90
2022-12-27T15:23:59.685Z,72.10
2022-12-27T15:26:37.611Z,72.30
2022-12-27T15:29:20.172Z,72.40
2022-12-27T15:32:00.189Z,72.70
2022-12-27T15:34:49.463Z,72.80
2022-12-27T15:38:08.081Z,73.00
2022-12-27T15:41:06.197Z,73.00
2022-12-27T15:44:04.677Z,73.30
2022-12-27T15:47:20.998Z,73.50
2022-12-27T15:50:21.362Z,74.00
2022-12-27T15:53:05.229Z,74.20
2022-12-27T15:56:00.516Z,74.40
2022-12-27T15:58:29.383Z,74.40
2022-12-27T16:01:29.891Z,74.50
2022-12-27T16:03:59.801Z,74.40
2022-12-27T16:06:56.600Z,74.70
2022-12-27T16:09:39.520Z,74.90
2022-12-27T16:12:13.236Z,74.80
2022-12-27T16:14:43.801Z,74.90
2022-12-27T16:17:32.441Z,74.90
2022-12-27T16:20:17.831Z,75.00
2022-12-27T16:22:54.387Z,75.10
2022-12-27T16:25:34.547Z,75.10
2022-12-27T16:28:07.696Z,75.20
2022-12-27T16:30:41.375Z,75.30
2022-12-27T16:33:34.020Z,75.40
2022-12-27T16:36:19.283Z,75.50
2022-12-27T16:39:03.751Z,75.60
2022-12-27T16:41:59.670Z,75.70
2022-12-27T16:44:52.254Z,75.70
2022-12-27T16:47:45.063Z,75.80
2022-12-27T16:50:37.333Z,75.90
2022-12-27T16:53:17.645Z,75.90
2022-12-27T16:56:17.248Z,76.10
2022-12-27T16:58:45.695Z,76.00
2022-12-27T17:01:52.831Z,76.00
2022-12-27T17:04:55.127Z,76.20
2022-12-27T17:07:51.379Z,76.30
2022-12-27T17:10:56.291Z,76.40
2022-12-27T17:13:34.393Z,76.30
2022-12-27T17:16:09.031Z,76.40
2022-12-27T17:18:45.019Z,76.50
2022-12-27T17:21:27.757Z,76.60
2022-12-27T17:24:00.412Z,76.70
2022-12-27T17:26:55.009Z,76.70
2022-12-27T17:29:54.058Z,76.90
2022-12-27T17:32:32.832Z,76.80
2022-12-27T17:35:08.194Z,77.00
2022-12-27T17:37:43.743Z,77.10
2022-12-27T17:40:27.727Z,77.10
2022-12-27T17:43:35.130Z,77.30
2022-12-27T17:46:22.592Z,77.40
2022-12-27T17:48:54.721Z,77.50
2022-12-27T17:51:27.772Z,77.50
2022-12-27T17:54:15.919Z,77.50
2022-12-27T17:57:03.611Z,77.50
2022-12-27T17:59:34.109Z,77.40
2022-12-27T18:02:07.988Z,77.40
2022-12-27T18:04:39.393Z,77.20
2022-12-27T18:07:10.453Z,77.20
2022-12-27T18:09:44.776Z,77.20
2022-12-27T18:12:19.177Z,77.20
2022-12-27T18:14:53.569Z,77.10
2022-12-27T18:17:28.982Z,77.30
2022-12-27T18:19:58.019Z,77.30
2022-12-27T18:22:26.546Z,77.50
2022-12-27T18:24:56.068Z,77.30
2022-12-27T18:27:27.109Z,77.60
2022-12-27T18:29:55.345Z,77.60
2022-12-27T18:32:25.760Z,77.80
2022-12-27T18:34:58.105Z,77.90
2022-12-27T18:37:27.157Z,77.80
2022-12-27T18:40:00.306Z,77.80
2022-12-27T18:42:34.396Z,77.90
2022-12-27T18:45:05.574Z,78.00
2022-12-27T18:47:38.817Z,78.00
2022-12-27T18:50:15.995Z,78.00
2022-12-27T18:52:49.628Z,78.00
2022-12-27T18:55:26.867Z,78.20
2022-12-27T18:58:03.535Z,77.90
2022-12-27T19:00:31.801Z,78.10
2022-12-27T19:03:14.635Z,78.00
2022-12-27T19:06:03.104Z,78.10
2022-12-27T19:08:36.156Z,78.10
2022-12-27T19:11:06.472Z,78.20
2022-12-27T19:13:43.266Z,78.40
2022-12-27T19:16:23.456Z,78.30
2022-12-27T19:18:54.501Z,78.30
2022-12-27T19:21:31.443Z,78.30
2022-12-27T19:23:59.678Z,78.40
2022-12-27T19:26:32.839Z,78.30
2022-12-27T19:29:08.871Z,78.40
2022-12-27T19:31:39.161Z,78.50
2022-12-27T19:34:09.995Z,78.50
2022-12-27T19:36:40.414Z,78.40
2022-12-27T19:39:19.349Z,78.50
2022-12-27T19:41:49.259Z,78.70
2022-12-27T19:44:18.075Z,78.70
2022-12-27T19:46:46.606Z,78.70
2022-12-27T19:49:41.503Z,78.80
2022-12-27T19:52:02.919Z,78.80
2022-12-27T19:54:31.856Z,78.80
2022-12-27T19:57:02.466Z,78.90
2022-12-27T19:59:30.612Z,78.70
2022-12-27T20:01:58.911Z,78.80
2022-12-27T20:04:27.170Z,79.00
2022-12-27T20:06:55.564Z,78.90
2022-12-27T20:09:23.858Z,79.00
2022-12-27T20:11:52.029Z,79.20
2022-12-27T20:14:21.586Z,79.00
2022-12-27T20:16:49.700Z,79.20
2022-12-27T20:19:20.190Z,79.20
2022-12-27T20:21:48.741Z,79.10
2022-12-27T20:24:17.153Z,79.30
2022-12-27T20:26:45.319Z,79.20
2022-12-27T20:29:15.124Z,79.20
2022-12-27T20:31:48.589Z,79.20
2022-12-27T20:34:17.132Z,79.10
2022-12-27T20:36:45.778Z,79.10
2022-12-27T20:39:14.027Z,79.00
2022-12-27T20:41:42.255Z,79.10
2022-12-27T20:44:10.464Z,78.90
2022-12-27T20:46:38.636Z,79.10
2022-12-27T20:49:08.373Z,79.00
2022-12-27T20:51:37.284Z,79.00
2022-12-27T20:54:06.309Z,79.00
2022-12-27T20:56:35.304Z,79.10
2022-12-27T20:59:03.582Z,79.00
2022-12-27T21:01:34.228Z,79.20
2022-12-27T21:04:17.882Z,79.40
2022-12-27T21:06:51.243Z,79.30
2022-12-27T21:09:22.659Z,79.50
2022-12-27T21:12:03.331Z,79.30
2022-12-27T21:14:34.807Z,79.50
2022-12-27T21:17:13.017Z,79.50
2022-12-27T21:19:43.138Z,79.50
2022-12-27T21:22:13.893Z,79.50
2022-12-27T21:24:43.254Z,79.50
2022-12-27T21:27:13.109Z,79.60
2022-12-27T21:29:41.467Z,79.70
2022-12-27T21:32:09.589Z,79.60
2022-12-27T21:34:38.123Z,79.60
2022-12-27T21:37:11.443Z,79.60
2022-12-27T21:39:42.676Z,79.60
2022-12-27T21:42:12.393Z,79.60
2022-12-27T21:44:40.525Z,79.60
2022-12-27T21:47:08.649Z,79.60
2022-12-27T21:49:40.424Z,79.50
2022-12-27T21:52:08.651Z,79.60
2022-12-27T21:54:36.798Z,79.50
2022-12-27T21:57:06.324Z,79.60
2022-12-27T21:59:34.482Z,79.50
2022-12-27T22:02:02.646Z,79.60
2022-12-27T22:04:30.776Z,79.40
2022-12-27T22:06:58.951Z,79.60
2022-12-27T22:09:27.117Z,79.60
2022-12-27T22:11:55.207Z,79.70
2022-12-27T22:14:25.693Z,79.80
2022-12-27T22:16:54.228Z,79.80
2022-12-27T22:19:22.517Z,79.80
2022-12-27T22:21:50.702Z,79.80
2022-12-27T22:24:19.849Z,79.90
2022-12-27T22:26:50.176Z,79.80
2022-12-27T22:29:18.965Z,79.80
2022-12-27T22:31:48.585Z,79.90
2022-12-27T22:34:16.738Z,79.70
2022-12-27T22:36:44.832Z,79.70
2022-12-27T22:39:13.030Z,79.80
2022-12-27T22:41:41.182Z,79.80
2022-12-27T22:44:11.687Z,79.90
2022-12-27T22:49:29.979Z,79.80
2022-12-27T22:51:58.091Z,79.90
2022-12-27T22:55:04.442Z,80.00
2022-12-27T22:57:14.481Z,79.90
2022-12-27T22:59:43.440Z,80.00
2022-12-27T23:02:11.735Z,79.90
2022-12-27T23:04:42.312Z,80.00
2022-12-27T23:07:10.556Z,80.00
2022-12-27T23:09:43.082Z,80.00
2022-12-27T23:12:12.086Z,80.00
2022-12-27T23:14:40.294Z,79.90
2022-12-27T23:17:08.444Z,79.90
2022-12-27T23:19:36.629Z,79.80
2022-12-27T23:22:06.589Z,79.80
2022-12-27T23:24:35.105Z,79.90
2022-12-27T23:27:03.581Z,79.80
2022-12-27T23:29:31.775Z,79.90
2022-12-27T23:32:00.040Z,79.90
2022-12-27T23:34:29.296Z,79.90
2022-12-27T23:36:57.774Z,79.80
2022-12-27T23:39:27.431Z,80.00
2022-12-27T23:41:55.831Z,80.10
2022-12-27T23:44:33.346Z,79.90
2022-12-27T23:47:04.557Z,80.00
2022-12-27T23:49:34.062Z,80.10
2022-12-27T23:52:02.390Z,80.10
2022-12-27T23:54:32.051Z,80.10
2022-12-27T23:57:20.606Z,80.00
2022-12-27T23:59:49.464Z,80.00
